createdAt,value
2022-11-26T00:01:19.322Z,3.23
2022-11-26T00:03:56.867Z,4.83
2022-11-26T00:06:42.999Z,6.03
2022-11-26T00:09:22.021Z,4.80
2022-11-26T00:11:56.957Z,5.60
2022-11-26T00:14:31.853Z,4.87
2022-11-26T00:17:06.743Z,4.03
2022-11-26T00:19:43.365Z,9.60
2022-11-26T00:22:30.460Z,7.13
2022-11-26T00:25:06.031Z,9.23
2022-11-26T00:27:40.962Z,10.63
2022-11-26T00:30:20.314Z,7.00
2022-11-26T00:32:56.175Z,6.10
2022-11-26T00:35:31.067Z,13.07
2022-11-26T00:38:06.064Z,10.60
2022-11-26T00:40:41.345Z,6.70
2022-11-26T00:43:18.104Z,8.93
2022-11-26T00:45:53.035Z,7.93
2022-11-26T00:48:28.042Z,5.87
2022-11-26T00:51:02.946Z,10.30
2022-11-26T00:53:37.864Z,5.30
2022-11-26T00:56:19.994Z,6.50
2022-11-26T00:58:55.238Z,7.97
2022-11-26T01:01:30.282Z,7.87
2022-11-26T01:04:05.239Z,4.90
2022-11-26T01:06:44.270Z,8.20
2022-11-26T01:09:21.528Z,4.57
2022-11-26T01:11:56.442Z,6.90
2022-11-26T01:14:31.308Z,10.13
2022-11-26T01:17:10.432Z,12.03
2022-11-26T01:19:45.317Z,8.67
2022-11-26T01:22:23.091Z,11.70
2022-11-26T01:24:57.958Z,18.17
2022-11-26T01:27:32.965Z,16.00
2022-11-26T01:30:25.174Z,18.27
2022-11-26T01:33:01.086Z,11.00
2022-11-26T01:35:36.839Z,12.73
2022-11-26T01:38:15.678Z,7.73
2022-11-26T01:41:28.568Z,11.77
2022-11-26T01:44:06.436Z,6.13
2022-11-26T01:46:41.679Z,8.53
2022-11-26T01:49:19.006Z,11.20
2022-11-26T01:52:23.941Z,8.83
2022-11-26T01:54:59.027Z,10.83
2022-11-26T01:57:38.498Z,5.70
2022-11-26T02:00:14.294Z,5.50
2022-11-26T02:02:49.553Z,9.17
2022-11-26T02:05:28.651Z,4.57
2022-11-26T02:08:03.820Z,5.67
2022-11-26T02:10:38.822Z,4.53
2022-11-26T02:13:13.841Z,6.13
2022-11-26T02:16:22.003Z,6.27
2022-11-26T02:19:36.650Z,4.77
2022-11-26T02:22:26.385Z,6.53
2022-11-26T02:25:38.446Z,4.00
2022-11-26T02:28:38.174Z,5.00
2022-11-26T02:31:44.653Z,4.73
2022-11-26T02:34:22.623Z,3.73
2022-11-26T02:37:02.311Z,5.33
2022-11-26T02:39:37.158Z,5.17
2022-11-26T02:42:27.137Z,5.20
2022-11-26T02:45:17.350Z,6.90
2022-11-26T02:47:58.665Z,4.67
2022-11-26T02:50:58.347Z,4.80
2022-11-26T02:53:35.081Z,4.33
2022-11-26T02:56:16.282Z,8.03
2022-11-26T02:58:53.519Z,5.57
2022-11-26T03:02:02.208Z,5.30
2022-11-26T03:04:47.226Z,6.00
2022-11-26T03:07:22.879Z,5.57
2022-11-26T03:10:01.149Z,6.20
2022-11-26T03:12:35.981Z,4.27
2022-11-26T03:15:11.483Z,5.60
2022-11-26T03:17:46.403Z,3.73
2022-11-26T03:20:21.286Z,6.33
2022-11-26T03:22:56.108Z,9.87
2022-11-26T03:25:31.095Z,6.90
2022-11-26T03:28:06.410Z,5.73
2022-11-26T03:30:41.278Z,5.93
2022-11-26T03:33:16.141Z,5.30
2022-11-26T03:35:50.993Z,5.13
2022-11-26T03:38:25.849Z,6.40
2022-11-26T03:41:05.149Z,5.23
2022-11-26T03:43:39.973Z,7.30
2022-11-26T03:46:15.207Z,6.57
2022-11-26T03:48:50.062Z,4.53
2022-11-26T03:51:24.872Z,7.13
2022-11-26T03:53:59.755Z,6.40
2022-11-26T03:56:34.726Z,7.77
2022-11-26T03:59:09.532Z,5.50
2022-11-26T04:01:44.635Z,7.73
2022-11-26T04:04:19.479Z,4.90
2022-11-26T04:06:54.315Z,8.63
2022-11-26T04:09:29.153Z,6.87
2022-11-26T04:12:04.451Z,9.00
2022-11-26T04:14:39.447Z,3.40
2022-11-26T04:17:14.536Z,4.07
2022-11-26T04:19:49.434Z,6.37
2022-11-26T04:22:24.319Z,3.37
2022-11-26T04:24:59.207Z,6.57
2022-11-26T04:27:34.540Z,4.90
2022-11-26T04:30:10.099Z,5.13
2022-11-26T04:32:44.970Z,5.23
2022-11-26T04:35:19.970Z,3.73
2022-11-26T04:37:54.809Z,4.37
2022-11-26T04:40:29.733Z,4.63
2022-11-26T04:43:05.302Z,2.90
2022-11-26T04:45:40.298Z,3.47
2022-11-26T04:48:15.264Z,6.37
2022-11-26T04:50:50.567Z,4.47
2022-11-26T04:53:25.484Z,8.80
2022-11-26T04:56:00.541Z,5.90
2022-11-26T04:58:35.941Z,5.97
2022-11-26T05:01:10.955Z,5.93
2022-11-26T05:03:45.889Z,8.80
2022-11-26T05:06:21.841Z,7.37
2022-11-26T05:08:56.790Z,7.83
2022-11-26T05:11:31.717Z,7.27
2022-11-26T05:14:06.549Z,8.90
2022-11-26T05:16:41.476Z,15.47
2022-11-26T05:19:16.605Z,9.23
2022-11-26T05:21:51.498Z,8.47
2022-11-26T05:24:26.378Z,8.77
2022-11-26T05:27:01.219Z,14.33
2022-11-26T05:29:36.037Z,11.27
2022-11-26T05:32:10.933Z,10.70
2022-11-26T05:34:45.891Z,16.13
2022-11-26T05:37:20.727Z,17.90
2022-11-26T05:39:55.567Z,12.70
2022-11-26T05:42:30.487Z,9.80
2022-11-26T05:45:06.121Z,10.77
2022-11-26T05:47:40.997Z,10.17
2022-11-26T05:50:15.842Z,13.47
2022-11-26T05:52:50.832Z,14.77
2022-11-26T05:55:25.905Z,9.00
2022-11-26T05:58:00.781Z,12.43
2022-11-26T06:00:35.609Z,13.10
2022-11-26T06:03:11.448Z,10.73
2022-11-26T06:05:46.451Z,10.60
2022-11-26T06:08:21.288Z,13.97
2022-11-26T06:10:56.124Z,14.63
2022-11-26T06:13:31.066Z,11.20
2022-11-26T06:16:06.639Z,10.80
2022-11-26T06:18:41.531Z,13.07
2022-11-26T06:21:16.630Z,12.50
2022-11-26T06:23:57.603Z,8.80
2022-11-26T06:26:33.878Z,11.97
2022-11-26T06:29:08.757Z,12.47
2022-11-26T06:31:43.777Z,15.07
2022-11-26T06:34:18.632Z,16.80
2022-11-26T06:36:53.510Z,10.30
2022-11-26T06:39:28.458Z,15.87
2022-11-26T06:42:03.346Z,14.83
2022-11-26T06:44:38.373Z,15.93
2022-11-26T06:47:13.973Z,13.30
2022-11-26T06:49:48.849Z,8.97
2022-11-26T06:52:23.792Z,11.37
2022-11-26T06:54:58.607Z,12.37
2022-11-26T06:57:33.438Z,11.47
2022-11-26T07:00:09.194Z,9.73
2022-11-26T07:02:44.233Z,13.37
2022-11-26T07:05:19.149Z,14.47
2022-11-26T07:07:54.039Z,13.03
2022-11-26T07:10:29.191Z,14.63
2022-11-26T07:13:04.151Z,7.97
2022-11-26T07:15:39.017Z,8.20
2022-11-26T07:18:13.869Z,9.20
2022-11-26T07:20:48.765Z,15.30
2022-11-26T07:23:23.803Z,11.60
2022-11-26T07:26:00.112Z,12.30
2022-11-26T07:28:35.993Z,12.63
2022-11-26T07:31:16.808Z,13.37
2022-11-26T07:33:52.233Z,13.83
2022-11-26T07:36:30.291Z,17.27
2022-11-26T07:39:05.206Z,14.67
2022-11-26T07:41:40.087Z,10.60
2022-11-26T07:44:15.071Z,10.60
2022-11-26T07:46:49.984Z,12.00
2022-11-26T07:49:24.845Z,8.00
2022-11-26T07:51:59.674Z,8.63
2022-11-26T07:54:34.496Z,13.13
2022-11-26T07:57:10.418Z,8.17
2022-11-26T07:59:45.219Z,13.20
2022-11-26T08:02:20.124Z,11.37
2022-11-26T08:04:54.962Z,12.17
2022-11-26T08:07:29.848Z,7.13
2022-11-26T08:10:05.810Z,6.30
2022-11-26T08:12:40.644Z,7.50
2022-11-26T08:15:16.166Z,9.60
2022-11-26T08:17:57.909Z,7.67
2022-11-26T08:20:32.753Z,8.90
2022-11-26T08:23:07.577Z,6.93
2022-11-26T08:26:06.167Z,9.10
2022-11-26T08:28:37.332Z,4.43
2022-11-26T08:31:15.944Z,6.00
2022-11-26T08:33:50.985Z,7.33
2022-11-26T08:36:27.443Z,6.00
2022-11-26T08:39:02.348Z,5.57
2022-11-26T08:41:37.164Z,4.93
2022-11-26T08:44:12.022Z,5.93
2022-11-26T08:46:46.878Z,6.10
2022-11-26T08:49:21.722Z,5.37
2022-11-26T08:51:56.965Z,3.80
2022-11-26T08:54:31.811Z,5.00
2022-11-26T08:57:06.666Z,7.63
2022-11-26T08:59:41.499Z,7.43
2022-11-26T09:02:18.886Z,7.60
2022-11-26T09:04:53.929Z,6.93
2022-11-26T09:07:28.826Z,11.53
2022-11-26T09:10:04.442Z,11.33
2022-11-26T09:12:39.292Z,9.70
2022-11-26T09:15:14.240Z,9.40
2022-11-26T09:17:49.115Z,8.93
2022-11-26T09:20:24.057Z,14.20
2022-11-26T09:22:59.344Z,12.43
2022-11-26T09:25:34.168Z,9.40
2022-11-26T09:28:09.019Z,11.07
2022-11-26T09:30:43.866Z,9.17
2022-11-26T09:33:18.705Z,7.73
2022-11-26T09:35:53.540Z,9.23
2022-11-26T09:38:28.369Z,11.60
2022-11-26T09:41:43.308Z,11.23
2022-11-26T09:44:26.054Z,14.07
2022-11-26T09:47:19.057Z,8.07
2022-11-26T09:50:14.782Z,13.50
2022-11-26T09:52:53.895Z,9.90
2022-11-26T09:55:36.401Z,8.63
2022-11-26T09:58:49.465Z,8.70
2022-11-26T10:01:24.876Z,10.50
2022-11-26T10:04:00.384Z,8.53
2022-11-26T10:06:56.227Z,11.13
2022-11-26T10:10:09.450Z,12.07
2022-11-26T10:13:47.944Z,8.70
2022-11-26T10:16:51.426Z,8.00
2022-11-26T10:19:59.193Z,8.20
2022-11-26T10:22:59.236Z,7.47
2022-11-26T10:25:46.354Z,8.70
2022-11-26T10:28:43.803Z,12.90
2022-11-26T10:31:27.272Z,6.60
2022-11-26T10:34:17.152Z,6.10
2022-11-26T10:36:52.166Z,6.90
2022-11-26T10:39:28.342Z,9.27
2022-11-26T10:42:22.710Z,10.47
2022-11-26T10:45:17.618Z,7.47
2022-11-26T10:47:52.804Z,8.93
2022-11-26T10:53:25.835Z,7.07
2022-11-26T10:56:05.746Z,6.20
2022-11-26T10:58:43.081Z,8.60
2022-11-26T11:01:18.277Z,10.60
2022-11-26T11:04:13.866Z,5.47
2022-11-26T11:06:48.731Z,5.57
2022-11-26T11:09:35.764Z,8.77
2022-11-26T11:12:25.822Z,5.27
2022-11-26T11:15:27.812Z,5.73
2022-11-26T11:18:13.347Z,6.13
2022-11-26T11:20:57.831Z,6.77
2022-11-26T11:24:07.243Z,5.43
2022-11-26T11:26:44.665Z,5.83
2022-11-26T11:29:36.797Z,11.40
2022-11-26T11:32:40.751Z,8.70
2022-11-26T11:35:30.229Z,10.53
2022-11-26T11:38:05.126Z,14.63
2022-11-26T11:40:42.160Z,11.10
2022-11-26T11:43:19.864Z,6.07
2022-11-26T11:46:21.997Z,14.80
2022-11-26T11:49:30.616Z,6.87
2022-11-26T11:52:53.471Z,5.80
2022-11-26T11:55:45.507Z,4.00
2022-11-26T11:58:41.787Z,3.63
2022-11-26T12:01:58.009Z,4.20
2022-11-26T12:05:01.540Z,6.27
2022-11-26T12:07:44.601Z,7.20
2022-11-26T12:10:46.857Z,4.70
2022-11-26T12:13:23.601Z,7.90
2022-11-26T12:16:05.669Z,4.37
2022-11-26T12:19:12.548Z,5.77
2022-11-26T12:21:55.160Z,2.90
2022-11-26T12:24:55.488Z,4.60
2022-11-26T12:27:43.650Z,7.77
2022-11-26T12:30:26.483Z,6.00
2022-11-26T12:33:13.416Z,5.97
2022-11-26T12:35:59.560Z,5.67
2022-11-26T12:38:45.373Z,5.03
2022-11-26T12:41:47.554Z,10.70
2022-11-26T12:44:38.254Z,7.17
2022-11-26T12:47:42.332Z,12.00
2022-11-26T12:50:38.275Z,9.00
2022-11-26T12:53:45.257Z,9.53
2022-11-26T12:56:41.581Z,12.30
2022-11-26T12:59:44.201Z,10.37
2022-11-26T13:02:25.167Z,9.80
2022-11-26T13:05:00.494Z,5.50
2022-11-26T13:07:56.691Z,5.53
2022-11-26T13:10:57.423Z,3.47
2022-11-26T13:13:44.209Z,6.63
2022-11-26T13:17:12.878Z,12.60
2022-11-26T13:19:58.805Z,12.63
2022-11-26T13:23:20.853Z,15.37
2022-11-26T13:26:03.503Z,12.70
2022-11-26T13:28:48.253Z,18.17
2022-11-26T13:31:58.284Z,8.33
2022-11-26T13:34:59.496Z,10.33
2022-11-26T13:37:58.234Z,8.33
2022-11-26T13:41:02.479Z,13.07
2022-11-26T13:44:11.228Z,12.90
2022-11-26T13:47:06.229Z,12.40
2022-11-26T13:49:50.359Z,5.07
2022-11-26T13:52:49.313Z,5.20
2022-11-26T13:55:47.299Z,5.27
2022-11-26T13:58:52.808Z,9.57
2022-11-26T14:01:37.215Z,10.80
2022-11-26T14:04:22.766Z,9.43
2022-11-26T14:07:06.604Z,11.33
2022-11-26T14:09:47.094Z,7.40
2022-11-26T14:12:24.753Z,5.43
2022-11-26T14:14:59.589Z,8.33
2022-11-26T14:17:57.265Z,7.03
2022-11-26T14:20:32.096Z,7.40
2022-11-26T14:23:50.641Z,12.63
2022-11-26T14:26:37.208Z,9.60
2022-11-26T14:29:17.546Z,6.63
2022-11-26T14:31:54.890Z,5.50
2022-11-26T14:34:52.000Z,7.17
2022-11-26T14:37:29.984Z,7.83
2022-11-26T14:40:23.205Z,7.63
2022-11-26T14:43:22.726Z,7.73
2022-11-26T14:46:14.961Z,12.43
2022-11-26T14:48:50.483Z,11.90
2022-11-26T14:51:27.458Z,4.43
2022-11-26T14:54:02.387Z,6.33
2022-11-26T14:56:40.898Z,8.43
2022-11-26T14:59:19.081Z,8.20
2022-11-26T15:01:54.017Z,14.03
2022-11-26T15:04:38.969Z,9.60
2022-11-26T15:07:28.289Z,10.63
2022-11-26T15:10:17.824Z,10.83
2022-11-26T15:12:53.529Z,15.63
2022-11-26T15:15:28.458Z,14.00
2022-11-26T15:18:05.966Z,15.10
2022-11-26T15:20:41.477Z,13.40
2022-11-26T15:23:18.874Z,11.80
2022-11-26T15:25:55.035Z,13.70
2022-11-26T15:28:37.736Z,9.83
2022-11-26T15:31:12.624Z,11.63
2022-11-26T15:33:47.955Z,12.50
2022-11-26T15:36:22.955Z,8.37
2022-11-26T15:39:06.497Z,11.53
2022-11-26T15:41:42.775Z,11.70
2022-11-26T15:44:25.507Z,11.83
2022-11-26T15:47:01.204Z,11.10
2022-11-26T15:49:40.185Z,17.03
2022-11-26T15:52:15.979Z,14.43
2022-11-26T15:55:12.474Z,16.73
2022-11-26T15:57:51.601Z,15.17
2022-11-26T16:00:39.834Z,11.33
2022-11-26T16:03:47.123Z,15.37
2022-11-26T16:06:32.233Z,9.23
2022-11-26T16:09:12.518Z,18.03
2022-11-26T16:12:00.996Z,13.70
2022-11-26T16:14:38.920Z,13.20
2022-11-26T16:17:17.395Z,10.70
2022-11-26T16:19:57.230Z,12.50
2022-11-26T16:22:33.563Z,15.37
2022-11-26T16:25:31.209Z,15.43
2022-11-26T16:28:10.422Z,12.70
2022-11-26T16:30:45.297Z,13.90
2022-11-26T16:33:20.263Z,15.20
2022-11-26T16:35:55.627Z,15.17
2022-11-26T16:38:30.527Z,14.13
2022-11-26T16:41:05.546Z,15.17
2022-11-26T16:43:40.448Z,15.30
2022-11-26T16:46:27.662Z,16.23
2022-11-26T16:49:02.879Z,19.33
2022-11-26T16:51:37.704Z,18.87
2022-11-26T16:54:15.729Z,17.03
2022-11-26T16:56:53.311Z,15.17
2022-11-26T16:59:30.913Z,16.77
2022-11-26T17:02:19.058Z,19.03
2022-11-26T17:04:54.094Z,20.30
2022-11-26T17:07:40.227Z,22.27
2022-11-26T17:10:25.375Z,18.00
2022-11-26T17:13:00.225Z,23.00
2022-11-26T17:15:35.304Z,22.33
2022-11-26T17:18:19.535Z,18.63
2022-11-26T17:20:54.468Z,24.50
2022-11-26T17:23:29.317Z,19.00
2022-11-26T17:26:16.785Z,19.87
2022-11-26T17:28:51.799Z,21.13
2022-11-26T17:31:26.708Z,21.20
2022-11-26T17:34:01.672Z,27.20
2022-11-26T17:36:37.146Z,22.83
2022-11-26T17:39:12.113Z,22.57
2022-11-26T17:41:46.934Z,32.07
2022-11-26T17:44:22.176Z,30.27
2022-11-26T17:49:53.699Z,22.60
2022-11-26T17:52:28.513Z,28.10
2022-11-26T17:55:03.530Z,20.40
2022-11-26T17:57:38.737Z,30.67
2022-11-26T18:00:19.864Z,29.33
2022-11-26T18:02:55.660Z,27.47
2022-11-26T18:05:30.523Z,28.87
2022-11-26T18:08:05.651Z,27.27
2022-11-26T18:10:41.167Z,22.30
2022-11-26T18:13:15.993Z,25.30
2022-11-26T18:15:59.417Z,28.90
2022-11-26T18:18:34.318Z,30.40
2022-11-26T18:21:09.154Z,27.50
2022-11-26T18:23:47.998Z,30.43
2022-11-26T18:26:22.868Z,26.30
2022-11-26T18:28:58.378Z,31.13
2022-11-26T18:31:39.296Z,28.37
2022-11-26T18:34:14.640Z,22.43
2022-11-26T18:36:53.650Z,23.40
2022-11-26T18:39:28.930Z,28.13
2022-11-26T18:42:35.323Z,25.60
2022-11-26T18:44:59.183Z,26.27
2022-11-26T18:47:34.145Z,27.37
2022-11-26T18:50:10.480Z,26.80
2022-11-26T18:52:45.390Z,29.23
2022-11-26T18:55:20.311Z,24.87
2022-11-26T18:57:55.256Z,24.83
2022-11-26T19:00:30.155Z,29.10
2022-11-26T19:03:05.933Z,28.27
2022-11-26T19:05:45.609Z,28.27
2022-11-26T19:08:21.600Z,28.50
2022-11-26T19:10:56.430Z,31.50
2022-11-26T19:13:31.731Z,26.47
2022-11-26T19:16:16.499Z,27.00
2022-11-26T19:18:52.605Z,28.13
2022-11-26T19:21:31.023Z,25.63
2022-11-26T19:24:09.154Z,27.60
2022-11-26T19:26:44.007Z,24.97
2022-11-26T19:29:18.980Z,28.10
2022-11-26T19:31:53.871Z,25.27
2022-11-26T19:34:28.806Z,21.40
2022-11-26T19:37:03.709Z,26.17
2022-11-26T19:39:39.081Z,25.60
2022-11-26T19:42:14.238Z,25.27
2022-11-26T19:44:49.362Z,24.20
2022-11-26T19:47:24.304Z,23.57
2022-11-26T19:49:59.232Z,31.20
2022-11-26T19:52:34.710Z,25.50
2022-11-26T19:55:10.191Z,28.17
2022-11-26T19:57:45.049Z,25.13
2022-11-26T20:00:20.176Z,23.60
2022-11-26T20:02:55.084Z,30.87
2022-11-26T20:05:29.982Z,21.30
2022-11-26T20:08:05.196Z,24.93
2022-11-26T20:10:40.176Z,23.13
2022-11-26T20:13:15.040Z,29.37
2022-11-26T20:15:49.865Z,28.60
2022-11-26T20:18:24.738Z,22.90
2022-11-26T20:21:04.231Z,24.03
2022-11-26T20:23:40.001Z,23.30
2022-11-26T20:26:29.475Z,26.47
2022-11-26T20:29:11.931Z,36.43
2022-11-26T20:31:50.213Z,26.50
2022-11-26T20:34:26.524Z,29.77
2022-11-26T20:37:03.160Z,24.97
2022-11-26T20:39:38.213Z,32.00
2022-11-26T20:42:15.286Z,24.67
2022-11-26T20:44:50.241Z,27.50
2022-11-26T20:47:25.145Z,27.37
2022-11-26T20:49:59.980Z,23.60
2022-11-26T20:52:34.960Z,30.77
2022-11-26T20:55:10.045Z,28.50
2022-11-26T20:57:52.074Z,24.90
2022-11-26T21:00:27.767Z,26.33
2022-11-26T21:03:02.806Z,25.17
2022-11-26T21:05:37.885Z,26.00
2022-11-26T21:08:13.459Z,29.80
2022-11-26T21:10:49.507Z,31.53
2022-11-26T21:13:24.341Z,24.43
2022-11-26T21:16:03.330Z,20.67
2022-11-26T21:18:38.453Z,28.80
2022-11-26T21:21:16.677Z,27.03
2022-11-26T21:23:51.721Z,29.97
2022-11-26T21:26:27.100Z,27.40
2022-11-26T21:29:02.472Z,33.37
2022-11-26T21:31:38.186Z,25.37
2022-11-26T21:34:14.533Z,27.53
2022-11-26T21:36:49.378Z,34.40
2022-11-26T21:39:24.317Z,30.97
2022-11-26T21:41:59.173Z,25.33
2022-11-26T21:44:34.100Z,28.00
2022-11-26T21:47:09.051Z,29.33
2022-11-26T21:49:43.908Z,22.70
2022-11-26T21:52:18.740Z,24.27
2022-11-26T21:54:53.757Z,20.73
2022-11-26T21:57:32.146Z,21.27
2022-11-26T22:00:08.439Z,23.97
2022-11-26T22:02:43.455Z,21.20
2022-11-26T22:05:18.296Z,23.90
2022-11-26T22:07:53.274Z,23.13
2022-11-26T22:10:32.019Z,22.80
2022-11-26T22:13:10.793Z,22.23
2022-11-26T22:15:46.101Z,23.03
2022-11-26T22:18:21.014Z,21.70
2022-11-26T22:20:55.861Z,19.63
2022-11-26T22:23:30.728Z,22.40
2022-11-26T22:26:06.044Z,20.97
2022-11-26T22:28:41.425Z,20.33
2022-11-26T22:31:29.158Z,18.60
2022-11-26T22:34:16.958Z,21.57
2022-11-26T22:36:51.905Z,21.40
2022-11-26T22:39:26.760Z,16.77
2022-11-26T22:42:01.793Z,19.70
2022-11-26T22:44:36.630Z,22.30
2022-11-26T22:47:11.460Z,21.07
2022-11-26T22:49:48.060Z,17.57
2022-11-26T22:52:22.882Z,14.83
2022-11-26T22:54:57.701Z,19.20
2022-11-26T22:57:32.512Z,20.17
2022-11-26T23:00:43.290Z,28.53
2022-11-26T23:03:20.523Z,23.87
2022-11-26T23:05:55.842Z,29.33
2022-11-26T23:08:31.065Z,22.07
2022-11-26T23:11:25.461Z,22.50
2022-11-26T23:14:02.014Z,27.13
2022-11-26T23:16:40.279Z,25.93
2022-11-26T23:19:16.799Z,28.43
2022-11-26T23:21:51.701Z,27.27
2022-11-26T23:24:28.833Z,29.57
2022-11-26T23:27:03.707Z,27.67
2022-11-26T23:29:38.855Z,27.67
2022-11-26T23:32:13.872Z,28.43
2022-11-26T23:34:48.722Z,25.20
2022-11-26T23:37:23.908Z,29.43
2022-11-26T23:39:58.756Z,31.60
2022-11-26T23:42:33.582Z,26.20
2022-11-26T23:45:09.326Z,25.60
2022-11-26T23:47:44.234Z,21.07
2022-11-26T23:50:19.221Z,22.70
2022-11-26T23:52:54.041Z,21.50
2022-11-26T23:55:28.879Z,20.03
2022-11-26T23:58:03.702Z,21.63
